Time;durP1;ratioP1;P1;durP2;ratioP2;P2;SDS_P1;SDS_P2;PMS_P1;PMS_P2;Temp;Humidity;BMP_temperature;BMP_pressure;BME280_temperature;BME280_humidity;BME280_pressure;Samples;Min_cycle;Max_cycle;Signal;HPM_P1;HPM_P2
2022/04/26 03:39:17;;;;;;;5.97;2.15;;;14.70;79.60;;;;;;10825114;32;20047;-73
2022/04/26 03:45:22;;;;;;;3.20;2.20;;;14.80;79.50;;;;;;10824991;33;20101;-74
2022/04/26 03:51:24;;;;;;;2.78;2.30;;;14.80;79.30;;;;;;10813713;33;20028;-74
2022/04/26 03:57:26;;;;;;;3.53;2.75;;;14.80;79.30;;;;;;10822781;33;20043;-74
2022/04/26 04:03:28;;;;;;;4.62;2.65;;;14.90;79.10;;;;;;10825757;33;20036;-74
2022/04/26 04:09:30;;;;;;;3.87;2.22;;;14.80;79.30;;;;;;10946779;32;20027;-74
2022/04/26 04:15:33;;;;;;;3.10;2.28;;;14.80;79.30;;;;;;10985171;32;20054;-73
2022/04/26 04:21:35;;;;;;;1.65;1.35;;;14.80;79.30;;;;;;10971366;32;20061;-73
2022/04/26 04:27:37;;;;;;;2.95;2.10;;;14.80;79.10;;;;;;10971342;32;20026;-74
2022/04/26 04:33:40;;;;;;;4.15;2.30;;;14.90;79.00;;;;;;10971164;32;20026;-73
2022/04/26 04:39:42;;;;;;;4.32;2.33;;;14.90;78.90;;;;;;10984323;32;20436;-74
2022/04/26 04:45:44;;;;;;;3.87;2.25;;;14.90;78.80;;;;;;10984056;32;20057;-74
2022/04/26 04:51:46;;;;;;;4.43;2.30;;;14.90;78.70;;;;;;10983803;32;20034;-73
2022/04/26 04:57:48;;;;;;;3.08;2.20;;;14.90;78.70;;;;;;10983744;32;20038;-74
2022/04/26 05:03:51;;;;;;;3.10;2.42;;;14.90;78.60;;;;;;10980825;32;20049;-73
2022/04/26 05:09:53;;;;;;;9.43;3.12;;;14.90;78.50;;;;;;10983367;32;20084;-73
2022/04/26 05:15:55;;;;;;;5.10;3.40;;;14.90;78.50;;;;;;10982917;32;20025;-74
2022/04/26 05:21:57;;;;;;;3.80;2.78;;;14.90;78.60;;;;;;10980899;32;20052;-73
2022/04/26 05:28:03;;;;;;;3.67;2.55;;;14.80;78.80;;;;;;10982721;32;20042;-73
2022/04/26 05:34:05;;;;;;;3.85;2.50;;;14.80;78.90;;;;;;10982380;32;20022;-74
2022/04/26 05:40:09;;;;;;;5.20;3.70;;;14.80;78.80;;;;;;10982081;32;20050;-74
2022/04/26 05:46:12;;;;;;;4.50;3.17;;;14.80;78.80;;;;;;10981789;32;20053;-74
2022/04/26 05:52:14;;;;;;;4.35;3.25;;;14.70;79.20;;;;;;10981844;32;20018;-73
2022/04/26 05:58:16;;;;;;;4.57;3.05;;;14.70;79.20;;;;;;10981352;32;20057;-73
2022/04/26 06:04:19;;;;;;;3.37;2.87;;;14.70;79.10;;;;;;10981163;32;20030;-74
2022/04/26 06:10:21;;;;;;;3.92;2.62;;;14.80;79.10;;;;;;10966944;32;20390;-74
2022/04/26 06:17:07;;;;;;;11.93;3.87;;;14.80;79.00;;;;;;10937827;32;20077;-74
2022/04/26 06:23:09;;;;;;;3.95;2.78;;;14.90;78.80;;;;;;10755244;33;21067;-74
2022/04/26 06:29:11;;;;;;;4.85;3.20;;;14.90;78.90;;;;;;10752590;33;20044;-75
2022/04/26 06:35:13;;;;;;;4.43;2.78;;;14.90;79.10;;;;;;10781330;33;20040;-75
2022/04/26 06:41:15;;;;;;;3.65;2.33;;;15.00;79.00;;;;;;10789905;33;20058;-75
2022/04/26 06:47:17;;;;;;;5.68;2.50;;;14.90;79.30;;;;;;10786422;33;20028;-75
2022/04/26 06:53:19;;;;;;;6.65;2.97;;;14.90;79.60;;;;;;10899748;32;20053;-74
2022/04/26 06:59:21;;;;;;;6.55;3.92;;;14.90;79.80;;;;;;10941634;32;20061;-74
2022/04/26 07:05:34;;;;;;;4.15;2.75;;;15.00;80.20;;;;;;10940006;32;20279;-73
2022/04/26 07:11:43;;;;;;;6.50;3.60;;;15.00;80.10;;;;;;10941590;32;20027;-74
2022/04/26 07:18:15;;;;;;;;;;;15.10;80.00;;;;;;10814930;32;20062;-73
2022/04/26 07:24:17;;;;;;;4.57;3.40;;;15.10;80.00;;;;;;10825808;32;19931;-74
2022/04/26 07:30:19;;;;;;;4.25;3.28;;;15.20;80.20;;;;;;10821769;32;20055;-74
2022/04/26 07:37:23;;;;;;;6.40;3.22;;;15.30;80.30;;;;;;10824468;32;20016;-74
2022/04/26 07:43:26;;;;;;;5.75;3.40;;;15.40;80.20;;;;;;10682991;33;20033;-74
2022/04/26 07:49:29;;;;;;;4.95;3.62;;;15.40;80.10;;;;;;10787007;32;20472;-74
2022/04/26 07:55:32;;;;;;;5.62;3.67;;;15.40;80.20;;;;;;10795092;33;20108;-73
2022/04/26 08:01:53;;;;;;;7.32;3.15;;;15.60;80.10;;;;;;10795936;33;20298;-73
2022/04/26 08:07:55;;;;;;;4.45;3.15;;;15.90;79.50;;;;;;10795740;33;20426;-73
2022/04/26 08:13:57;;;;;;;3.65;2.45;;;16.00;79.30;;;;;;10794145;33;20027;-73
2022/04/26 08:20:12;;;;;;;5.82;3.35;;;15.90;79.30;;;;;;10917706;32;20072;-73
2022/04/26 08:32:46;;;;;;;4.25;2.62;;;16.10;79.20;;;;;;10948479;32;20363;-73
2022/04/26 08:38:48;;;;;;;3.80;3.08;;;16.20;78.80;;;;;;10946372;32;20018;-73
2022/04/26 08:44:50;;;;;;;2.90;2.30;;;16.40;78.40;;;;;;10932536;32;20022;-73
2022/04/26 08:51:00;;;;;;;4.60;3.03;;;16.60;78.20;;;;;;10943554;32;20059;-73
2022/04/26 08:57:03;;;;;;;4.10;2.28;;;16.70;78.10;;;;;;10945702;32;20062;-73
2022/04/26 09:03:11;;;;;;;5.97;2.97;;;16.50;78.20;;;;;;10945597;32;20019;-73
2022/04/26 09:09:15;;;;;;;4.37;2.78;;;16.50;78.20;;;;;;10945368;32;20062;-72
2022/04/26 09:15:18;;;;;;;4.03;2.92;;;16.30;78.30;;;;;;10949563;27;20073;-73
2022/04/26 09:21:21;;;;;;;4.07;2.87;;;16.30;78.60;;;;;;10944570;32;20023;-73
2022/04/26 09:27:23;;;;;;;2.87;2.20;;;16.40;78.60;;;;;;10944036;32;20050;-74
2022/04/26 09:33:33;;;;;;;6.93;2.67;;;16.50;78.50;;;;;;10944433;32;20100;-73
2022/04/26 09:39:36;;;;;;;4.65;2.87;;;16.70;78.40;;;;;;10943288;32;20035;-74
2022/04/26 09:45:56;;;;;;;4.80;2.72;;;17.00;77.90;;;;;;10943854;32;20035;-74
2022/04/26 09:51:59;;;;;;;4.18;2.42;;;17.00;77.40;;;;;;10933691;32;20081;-74
2022/04/26 09:58:01;;;;;;;5.82;4.30;;;17.10;77.50;;;;;;10940056;32;20034;-74
2022/04/26 10:04:06;;;;;;;4.78;2.92;;;17.50;77.20;;;;;;10928674;32;20059;-74
2022/04/26 10:10:09;;;;;;;4.20;2.28;;;17.70;76.20;;;;;;10933826;32;20065;-73
2022/04/26 10:16:19;;;;;;;5.40;3.50;;;17.70;76.20;;;;;;10905221;32;20051;-74
2022/04/26 10:23:01;;;;;;;4.80;3.12;;;17.40;76.40;;;;;;10904926;32;20031;-73
2022/04/26 10:30:11;;;;;;;4.60;2.60;;;17.30;76.50;;;;;;10904608;32;20028;-73
2022/04/26 10:36:33;;;;;;;4.22;2.50;;;17.30;76.30;;;;;;10753941;33;20032;-73
2022/04/26 10:42:36;;;;;;;6.07;3.33;;;17.20;76.20;;;;;;10752815;33;20043;-73
2022/04/26 10:48:38;;;;;;;5.22;3.25;;;17.10;76.30;;;;;;10752598;33;20067;-73
2022/04/26 10:54:51;;;;;;;9.52;2.95;;;17.00;76.20;;;;;;10752494;33;20032;-73
2022/04/26 11:00:53;;;;;;;5.25;2.42;;;16.90;76.30;;;;;;10753314;33;20094;-69
2022/04/26 11:07:11;;;;;;;5.82;3.72;;;16.80;76.30;;;;;;10751059;33;20036;-69
2022/04/26 11:13:19;;;;;;;5.60;3.60;;;16.80;76.40;;;;;;10883333;32;20062;-70
2022/04/26 11:19:32;;;;;;;7.35;3.33;;;16.80;76.70;;;;;;10922736;32;20154;-69
2022/04/26 11:31:55;;;;;;;3.90;2.70;;;17.10;76.50;;;;;;10938032;32;20035;-69
2022/04/26 11:38:03;;;;;;;6.70;3.30;;;17.30;76.20;;;;;;10911002;32;20050;-69
2022/04/26 11:44:06;;;;;;;5.72;3.78;;;17.50;76.10;;;;;;10909861;32;20045;-70
2022/04/26 11:50:15;;;;;;;6.57;3.70;;;17.70;75.70;;;;;;10910791;32;20073;-70
2022/04/26 11:56:18;;;;;;;6.30;3.78;;;17.70;75.60;;;;;;10905914;32;20019;-69
2022/04/26 12:02:21;;;;;;;4.40;2.60;;;17.80;75.70;;;;;;10909827;32;20054;-69
2022/04/26 12:08:25;;;;;;;11.70;3.08;;;18.20;74.90;;;;;;10909710;32;20508;-69
2022/04/26 12:14:28;;;;;;;5.07;2.92;;;18.80;73.80;;;;;;10916090;32;20049;-70
2022/04/26 12:20:31;;;;;;;4.95;2.53;;;19.40;72.10;;;;;;10912552;32;20053;-69
2022/04/26 12:26:51;;;;;;;7.68;3.30;;;19.10;72.00;;;;;;10908959;32;20027;-69
2022/04/26 12:32:54;;;;;;;7.18;2.75;;;18.80;72.30;;;;;;10909399;32;20370;-69
2022/04/26 12:39:00;;;;;;;7.10;2.83;;;18.70;72.80;;;;;;10908836;32;20053;-69
2022/04/26 12:45:13;;;;;;;5.70;2.85;;;18.50;72.70;;;;;;10904597;32;20054;-69
2022/04/26 12:51:25;;;;;;;4.18;2.37;;;18.60;72.90;;;;;;10908531;32;20042;-69
2022/04/26 12:57:27;;;;;;;10.60;3.12;;;18.70;72.40;;;;;;10904115;32;20039;-69
2022/04/26 13:03:29;;;;;;;6.05;2.58;;;18.80;71.80;;;;;;10910767;32;20312;-69
2022/04/26 13:16:42;;;;;;;4.95;3.40;;;19.30;71.10;;;;;;10907338;32;20027;-70
2022/04/26 13:23:00;;;;;;;3.45;1.73;;;19.40;70.10;;;;;;10905985;32;20134;-69
2022/04/26 13:29:21;;;;;;;3.60;2.62;;;19.30;70.40;;;;;;10919593;32;20069;-69
2022/04/26 13:35:25;;;;;;;7.32;2.67;;;19.50;68.90;;;;;;10916706;32;20407;-69
2022/04/26 13:41:27;;;;;;;5.28;3.45;;;19.40;69.40;;;;;;10905409;32;20031;-71
2022/04/26 13:47:30;;;;;;;7.70;3.20;;;19.70;68.80;;;;;;10906306;32;20328;-70
2022/04/26 13:53:32;;;;;;;7.10;2.62;;;19.60;68.20;;;;;;10911761;32;20035;-69
2022/04/26 13:59:34;;;;;;;4.55;2.58;;;19.50;68.20;;;;;;10934969;32;20069;-70
2022/04/26 14:06:04;;;;;;;3.58;2.78;;;19.80;68.10;;;;;;10918470;32;20035;-69
2022/04/26 14:12:08;;;;;;;5.03;1.67;;;19.80;67.70;;;;;;10919554;32;20085;-72
2022/04/26 14:24:32;;;;;;;5.12;3.15;;;19.80;68.00;;;;;;10905727;32;20309;-73
2022/04/26 14:30:34;;;;;;;4.90;2.42;;;19.80;67.60;;;;;;10905742;32;20055;-73
2022/04/26 14:36:35;;;;;;;4.22;2.03;;;20.00;67.60;;;;;;10905596;32;20035;-73
2022/04/26 14:42:38;;;;;;;18.95;3.80;;;19.90;67.40;;;;;;10905468;32;20034;-73
2022/04/26 14:48:41;;;;;;;6.37;3.33;;;19.80;67.70;;;;;;10939904;32;20035;-70
2022/04/26 14:54:43;;;;;;;5.07;2.22;;;19.70;67.70;;;;;;10942164;32;20409;-69
2022/04/26 15:00:45;;;;;;;4.50;2.53;;;19.50;68.20;;;;;;10924414;32;20065;-69
2022/04/26 15:06:49;;;;;;;11.38;5.07;;;19.30;68.70;;;;;;10928670;32;20468;-69
2022/04/26 15:19:13;;;;;;;7.65;5.30;;;19.00;69.20;;;;;;10941301;32;20335;-70
2022/04/26 15:25:15;;;;;;;7.40;4.72;;;18.70;71.10;;;;;;10941571;32;20036;-70
2022/04/26 15:31:19;;;;;;;5.45;2.97;;;18.30;72.50;;;;;;10941477;32;20027;-69
2022/04/26 15:37:24;;;;;;;10.00;4.82;;;18.20;72.80;;;;;;10941231;32;20054;-69
2022/04/26 15:43:30;;;;;;;8.13;4.72;;;18.30;73.10;;;;;;10941373;32;20019;-69
2022/04/26 15:49:33;;;;;;;6.35;4.28;;;18.20;73.40;;;;;;10941175;32;20073;-69
2022/04/26 15:55:35;;;;;;;8.18;3.97;;;18.20;73.70;;;;;;10940002;32;20018;-70
2022/04/26 16:01:45;;;;;;;9.55;5.47;;;18.10;74.20;;;;;;10940808;32;20034;-69
2022/04/26 16:07:58;;;;;;;9.07;6.25;;;18.00;74.70;;;;;;10947681;32;20050;-70
2022/04/26 16:20:30;;;;;;;5.18;3.15;;;17.80;75.20;;;;;;10946013;32;20398;-70
2022/04/26 16:26:34;;;;;;;9.63;4.00;;;17.80;75.40;;;;;;10947508;32;20053;-70
2022/04/26 16:32:38;;;;;;;4.43;2.87;;;17.70;75.20;;;;;;10947020;32;20041;-68
2022/04/26 16:38:40;;;;;;;8.45;3.95;;;17.30;74.40;;;;;;10947030;32;20061;-69
2022/04/26 16:44:56;;;;;;;7.45;4.18;;;16.60;75.10;;;;;;10946942;32;20327;-69
2022/04/26 16:50:58;;;;;;;6.32;2.47;;;16.50;75.80;;;;;;10946702;32;20030;-69
2022/04/26 16:57:05;;;;;;;6.78;3.00;;;16.50;76.20;;;;;;10946501;32;20019;-70
2022/04/26 17:03:28;;;;;;;1.55;1.37;;;16.50;75.90;;;;;;10946226;32;20364;-70
2022/04/26 17:09:34;;;;;;;2.33;1.75;;;16.50;75.80;;;;;;10945982;32;20407;-70
2022/04/26 17:16:02;;;;;;;;;;;16.70;75.40;;;;;;10921128;27;20038;-70
2022/04/26 17:22:17;;;;;;;3.50;2.67;;;17.20;74.70;;;;;;10927833;32;19945;-69
2022/04/26 17:28:22;;;;;;;8.40;2.00;;;17.10;74.90;;;;;;10943893;32;20027;-69
2022/04/26 17:34:45;;;;;;;4.12;2.28;;;17.10;75.10;;;;;;10944763;32;20077;-69
2022/04/26 17:40:47;;;;;;;4.53;3.12;;;16.90;75.30;;;;;;10944990;32;20049;-70
2022/04/26 17:46:51;;;;;;;5.30;2.62;;;16.90;75.50;;;;;;10911914;32;20034;-69
2022/04/26 18:00:09;;;;;;;3.58;2.40;;;16.80;75.80;;;;;;10926325;32;20454;-70
2022/04/26 18:12:54;;;;;;;3.28;2.37;;;16.80;75.60;;;;;;10911868;32;20065;-70
2022/04/26 18:19:21;;;;;;;5.60;4.03;;;16.70;75.60;;;;;;10928059;32;20034;-70
2022/04/26 18:32:10;;;;;;;6.22;4.93;;;16.70;75.80;;;;;;10907991;32;20065;-70
2022/04/26 18:38:13;;;;;;;5.37;2.92;;;16.70;75.70;;;;;;10915405;32;20438;-70
2022/04/26 18:44:48;;;;;;;5.20;3.67;;;16.70;75.70;;;;;;10912795;32;20080;-70
2022/04/26 18:50:51;;;;;;;5.65;3.87;;;16.60;75.70;;;;;;10918763;32;20351;-70
2022/04/26 18:56:54;;;;;;;7.93;5.55;;;16.60;75.70;;;;;;10904319;32;20027;-70
2022/04/26 19:02:57;;;;;;;7.37;4.85;;;16.60;75.70;;;;;;10941000;32;20445;-70
2022/04/26 19:09:19;;;;;;;5.82;4.32;;;16.50;75.90;;;;;;10911613;32;20453;-70
2022/04/26 19:15:22;;;;;;;7.15;4.28;;;16.50;75.90;;;;;;10925331;32;20426;-70
2022/04/26 19:21:40;;;;;;;8.35;5.45;;;16.50;75.90;;;;;;10908244;32;20043;-74
2022/04/26 19:27:42;;;;;;;6.60;4.85;;;16.40;76.00;;;;;;10935528;32;20035;-74
2022/04/26 19:33:45;;;;;;;7.68;5.78;;;16.40;76.20;;;;;;10923108;32;20055;-74
2022/04/26 19:39:53;;;;;;;9.57;4.60;;;16.30;76.30;;;;;;10920036;32;20077;-74
2022/04/26 19:45:55;;;;;;;6.12;4.55;;;16.40;76.20;;;;;;10916701;32;20055;-75
2022/04/26 19:52:10;;;;;;;6.15;4.62;;;16.30;76.10;;;;;;10912536;32;20100;-74
2022/04/26 19:58:13;;;;;;;7.05;4.57;;;16.30;76.30;;;;;;10917459;32;20392;-75
2022/04/26 20:04:18;;;;;;;8.38;5.62;;;16.30;76.50;;;;;;10938793;32;20046;-70
2022/04/26 20:10:20;;;;;;;10.82;6.28;;;16.20;76.60;;;;;;10940057;32;20034;-75
2022/04/26 20:16:22;;;;;;;13.43;7.85;;;16.10;77.00;;;;;;10938249;32;20068;-70
2022/04/26 20:22:27;;;;;;;7.55;6.20;;;16.00;77.60;;;;;;10943930;32;20039;-70
2022/04/26 20:35:10;;;;;;;12.02;7.03;;;15.90;77.90;;;;;;10946716;32;20023;-70
2022/04/26 20:41:12;;;;;;;11.52;7.20;;;15.80;78.20;;;;;;10946713;32;20034;-69
2022/04/26 20:47:15;;;;;;;9.30;6.40;;;15.90;78.10;;;;;;10946660;32;20050;-70
2022/04/26 20:53:17;;;;;;;11.00;7.93;;;15.90;78.10;;;;;;10945204;32;20398;-70
2022/04/26 20:59:20;;;;;;;7.03;5.60;;;15.90;78.20;;;;;;10946189;32;20038;-70
2022/04/26 21:05:22;;;;;;;8.05;5.60;;;16.00;78.10;;;;;;10946202;32;20050;-70
2022/04/26 21:11:24;;;;;;;9.65;7.35;;;16.00;77.90;;;;;;10945812;32;20032;-70
2022/04/26 21:17:27;;;;;;;6.82;5.37;;;16.00;78.00;;;;;;10932235;32;20049;-70
2022/04/26 21:23:30;;;;;;;9.02;7.53;;;15.80;78.20;;;;;;10945406;32;20034;-70
2022/04/26 21:29:59;;;;;;;8.23;4.62;;;15.80;78.20;;;;;;10945203;32;20023;-70
2022/04/26 21:36:05;;;;;;;8.53;6.07;;;15.90;78.20;;;;;;10945074;32;20070;-70
2022/04/26 21:42:08;;;;;;;9.98;7.12;;;15.90;78.20;;;;;;10944732;32;20335;-70
2022/04/26 21:48:11;;;;;;;7.32;5.90;;;15.80;78.40;;;;;;10919036;32;20031;-70
2022/04/26 21:54:13;;;;;;;8.70;5.35;;;15.80;78.30;;;;;;10906839;32;20058;-70
2022/04/26 22:00:25;;;;;;;6.82;5.07;;;15.80;78.30;;;;;;10901701;32;20019;-69
2022/04/26 22:06:28;;;;;;;7.55;5.35;;;16.00;78.20;;;;;;10893048;32;20413;-70
2022/04/26 22:12:31;;;;;;;8.60;6.00;;;15.90;78.20;;;;;;10902662;32;20421;-69
2022/04/26 22:18:33;;;;;;;7.20;5.35;;;15.80;78.30;;;;;;10905843;32;20027;-70
2022/04/26 22:24:35;;;;;;;6.78;3.92;;;15.80;78.40;;;;;;10905844;32;20326;-70
2022/04/26 22:30:37;;;;;;;4.82;3.97;;;15.80;78.30;;;;;;10905573;32;20058;-70
2022/04/26 22:36:40;;;;;;;6.97;4.37;;;15.80;78.10;;;;;;10905202;32;20019;-70
2022/04/26 22:42:42;;;;;;;7.25;4.65;;;15.90;78.10;;;;;;10906333;32;20371;-70
2022/04/26 22:48:44;;;;;;;4.80;3.37;;;15.90;77.90;;;;;;10900803;32;20043;-70
2022/04/26 22:54:46;;;;;;;6.55;4.07;;;15.90;77.80;;;;;;10904813;32;20032;-70
2022/04/26 23:00:49;;;;;;;8.23;5.82;;;15.80;77.90;;;;;;10904709;32;20073;-70
2022/04/26 23:06:51;;;;;;;7.47;5.37;;;15.70;78.20;;;;;;10904486;32;20391;-70
2022/04/26 23:12:54;;;;;;;8.57;4.82;;;15.60;78.40;;;;;;10904205;32;20049;-70
2022/04/26 23:19:00;;;;;;;6.18;4.22;;;15.70;78.40;;;;;;10904053;32;20031;-70
2022/04/26 23:25:02;;;;;;;8.90;4.53;;;15.70;78.30;;;;;;10904082;32;20140;-70
2022/04/26 23:31:06;;;;;;;5.72;4.57;;;15.70;78.30;;;;;;10903967;32;20031;-70
2022/04/26 23:37:08;;;;;;;4.37;3.17;;;15.60;78.30;;;;;;10903955;32;20421;-70
2022/04/26 23:43:11;;;;;;;5.20;3.87;;;15.60;78.20;;;;;;10903837;32;20429;-70
2022/04/26 23:49:14;;;;;;;5.15;3.33;;;15.60;78.20;;;;;;10903778;32;20019;-70
2022/04/26 23:55:16;;;;;;;8.38;5.22;;;15.60;78.20;;;;;;10903676;32;20054;-70
